Time;durP1;ratioP1;P1;durP2;ratioP2;P2;SDS_P1;SDS_P2;PMS_P1;PMS_P2;Temp;Humidity;BMP_temperature;BMP_pressure;BME280_temperature;BME280_humidity;BME280_pressure;Samples;Min_cycle;Max_cycle;Signal;HPM_P1;HPM_P2
2023/08/04 00:01:49;;;;;;;2.93;1.07;;;13.30;37.90;;;;;;4954122;29;20279;-69
2023/08/04 00:04:15;;;;;;;3.63;1.20;;;13.40;37.60;;;;;;4954461;29;20206;-69
2023/08/04 00:06:40;;;;;;;2.13;0.87;;;13.30;37.50;;;;;;4955031;29;20264;-69
2023/08/04 00:09:06;;;;;;;2.53;0.77;;;13.30;39.70;;;;;;4954221;28;20757;-69
2023/08/04 00:11:31;;;;;;;2.10;1.03;;;13.30;38.30;;;;;;4954669;29;20207;-70
2023/08/04 00:13:57;;;;;;;2.67;1.00;;;13.30;37.80;;;;;;4954565;29;20178;-70
2023/08/04 00:16:22;;;;;;;3.93;1.17;;;13.20;38.50;;;;;;4953968;29;20201;-70
2023/08/04 00:18:48;;;;;;;4.70;1.20;;;13.30;38.10;;;;;;4953925;28;20315;-69
2023/08/04 00:21:13;;;;;;;6.77;0.70;;;13.30;38.40;;;;;;4953901;29;20204;-70
2023/08/04 00:23:39;;;;;;;4.03;0.87;;;13.30;38.00;;;;;;4953558;29;20262;-70
2023/08/04 00:26:04;;;;;;;2.83;1.10;;;13.30;37.60;;;;;;4953645;29;20640;-71
2023/08/04 00:28:30;;;;;;;2.33;1.23;;;13.30;37.40;;;;;;4953860;28;20895;-71
2023/08/04 00:30:55;;;;;;;1.80;0.73;;;13.30;37.50;;;;;;4954237;29;20229;-71
2023/08/04 00:33:22;;;;;;;2.63;1.00;;;13.30;37.70;;;;;;4953626;29;20189;-72
2023/08/04 00:35:47;;;;;;;2.00;0.83;;;13.30;37.70;;;;;;4953792;28;20182;-71
2023/08/04 00:38:13;;;;;;;2.20;1.13;;;13.20;38.20;;;;;;4953662;28;20436;-72
2023/08/04 00:40:38;;;;;;;2.97;0.93;;;13.20;37.90;;;;;;4953732;29;20179;-71
2023/08/04 00:43:04;;;;;;;3.00;1.13;;;13.20;38.30;;;;;;4953684;29;20680;-71
2023/08/04 00:45:31;;;;;;;1.80;0.80;;;13.20;38.30;;;;;;4953782;29;20199;-71
2023/08/04 00:47:58;;;;;;;1.60;0.70;;;13.20;38.30;;;;;;4953655;28;20693;-72
2023/08/04 00:50:23;;;;;;;4.33;0.90;;;13.20;38.40;;;;;;4953669;28;20427;-72
2023/08/04 00:52:50;;;;;;;2.23;1.00;;;13.10;38.20;;;;;;4953321;29;20436;-72
2023/08/04 00:55:17;;;;;;;2.20;1.10;;;13.10;38.50;;;;;;4953669;28;20271;-72
2023/08/04 00:57:43;;;;;;;2.00;0.80;;;13.00;38.80;;;;;;4953428;28;20473;-71
2023/08/04 01:00:09;;;;;;;2.90;1.23;;;13.00;40.20;;;;;;4953637;29;20415;-71
2023/08/04 01:02:34;;;;;;;3.60;1.27;;;13.00;40.40;;;;;;4953379;28;20182;-72
2023/08/04 01:05:02;;;;;;;2.00;1.47;;;12.90;40.30;;;;;;4953484;28;20445;-71
2023/08/04 01:07:31;;;;;;;1.50;0.60;;;13.00;41.10;;;;;;4952205;28;20215;-73
2023/08/04 01:10:20;;;;;;;3.50;1.47;;;13.00;40.10;;;;;;4953558;28;20451;-71
2023/08/04 01:12:54;;;;;;;4.67;1.33;;;13.00;39.50;;;;;;4953292;28;20798;-71
2023/08/04 01:15:22;;;;;;;1.97;1.13;;;13.00;40.10;;;;;;4953497;29;20887;-71
2023/08/04 01:17:48;;;;;;;2.30;1.10;;;13.00;40.10;;;;;;4953684;28;20502;-72
2023/08/04 01:20:13;;;;;;;2.70;1.10;;;12.90;39.80;;;;;;4953425;29;20957;-71
2023/08/04 01:22:39;;;;;;;2.13;1.10;;;12.90;40.70;;;;;;4953107;29;20547;-71
2023/08/04 01:25:05;;;;;;;2.37;0.77;;;12.90;40.20;;;;;;4953380;29;20640;-71
2023/08/04 01:27:33;;;;;;;2.03;1.07;;;12.80;40.70;;;;;;4953343;28;20278;-72
2023/08/04 01:30:01;;;;;;;1.80;0.90;;;12.80;41.40;;;;;;4953386;28;20835;-71
2023/08/04 01:32:27;;;;;;;4.33;0.90;;;12.70;41.30;;;;;;4952970;28;20456;-71
2023/08/04 01:34:53;;;;;;;3.87;1.10;;;12.60;42.80;;;;;;4952968;28;20457;-71
2023/08/04 01:37:19;;;;;;;4.00;0.90;;;12.60;43.30;;;;;;4953087;28;20469;-71
2023/08/04 01:39:45;;;;;;;1.60;0.80;;;12.60;43.40;;;;;;4952466;29;20229;-72
2023/08/04 01:42:10;;;;;;;2.10;1.07;;;12.60;42.90;;;;;;4952254;29;20664;-72
2023/08/04 01:44:36;;;;;;;2.27;1.20;;;12.50;43.50;;;;;;4952876;29;20185;-71
2023/08/04 01:47:02;;;;;;;2.00;1.00;;;12.50;43.50;;;;;;4954615;28;20208;-70
2023/08/04 01:49:28;;;;;;;2.67;1.30;;;12.50;43.60;;;;;;4956658;29;20220;-71
2023/08/04 01:51:54;;;;;;;2.83;1.40;;;12.40;44.60;;;;;;4956294;29;20927;-71
2023/08/04 01:54:19;;;;;;;2.53;1.20;;;12.30;45.50;;;;;;4956483;29;20178;-72
2023/08/04 01:56:46;;;;;;;3.40;1.27;;;12.30;45.30;;;;;;4956483;29;20204;-71
2023/08/04 01:59:11;;;;;;;2.00;0.80;;;12.30;45.40;;;;;;4956384;28;20269;-71
2023/08/04 02:01:37;;;;;;;1.70;0.80;;;12.30;46.30;;;;;;4956188;29;20497;-71
2023/08/04 02:04:02;;;;;;;1.60;0.80;;;12.20;46.50;;;;;;4956524;29;20434;-70
2023/08/04 02:06:28;;;;;;;3.07;1.43;;;12.10;46.40;;;;;;4956477;29;20229;-71
2023/08/04 02:08:53;;;;;;;2.93;1.43;;;12.10;47.50;;;;;;4956289;28;20203;-72
2023/08/04 02:11:19;;;;;;;1.63;0.87;;;12.20;47.20;;;;;;4956550;29;20179;-70
2023/08/04 02:13:44;;;;;;;1.57;0.80;;;12.20;46.70;;;;;;4955028;29;20614;-71
2023/08/04 02:16:10;;;;;;;3.50;1.40;;;12.30;47.40;;;;;;4956218;29;20261;-71
2023/08/04 02:18:35;;;;;;;2.63;1.43;;;12.30;46.40;;;;;;4956024;28;20241;-72
2023/08/04 02:21:01;;;;;;;2.70;1.20;;;12.40;45.90;;;;;;4956085;29;20175;-71
2023/08/04 02:23:27;;;;;;;2.10;1.03;;;12.30;45.40;;;;;;4955893;29;20216;-71
2023/08/04 02:25:52;;;;;;;3.00;1.07;;;12.40;45.40;;;;;;4956406;29;20417;-72
2023/08/04 02:28:18;;;;;;;4.50;1.10;;;12.30;45.60;;;;;;4955947;28;20190;-72
2023/08/04 02:30:43;;;;;;;2.00;1.00;;;12.30;46.30;;;;;;4955803;29;20275;-71
2023/08/04 02:33:09;;;;;;;2.10;1.03;;;12.40;45.70;;;;;;4955661;29;20195;-71
2023/08/04 02:35:34;;;;;;;2.67;1.07;;;12.40;44.90;;;;;;4955857;29;20169;-72
2023/08/04 02:38:00;;;;;;;2.40;1.20;;;12.40;44.70;;;;;;4955655;28;20206;-71
2023/08/04 02:40:25;;;;;;;2.30;1.30;;;12.50;43.60;;;;;;4955760;29;20203;-71
2023/08/04 02:42:51;;;;;;;4.13;1.17;;;12.50;44.40;;;;;;4955422;29;20174;-71
2023/08/04 02:45:16;;;;;;;3.10;1.27;;;12.50;44.00;;;;;;4955686;29;20213;-72
2023/08/04 02:47:42;;;;;;;1.70;0.70;;;12.50;43.60;;;;;;4955518;28;20201;-71
2023/08/04 02:50:08;;;;;;;2.13;0.73;;;12.60;43.60;;;;;;4955625;29;20205;-71
2023/08/04 02:52:34;;;;;;;1.80;1.00;;;12.60;43.70;;;;;;4955467;29;20178;-71
2023/08/04 02:54:59;;;;;;;1.80;1.00;;;12.70;43.50;;;;;;4955711;29;20507;-72
2023/08/04 02:57:30;;;;;;;1.80;0.90;;;12.80;42.50;;;;;;4955384;28;20472;-71
2023/08/04 02:59:59;;;;;;;3.07;1.10;;;12.90;42.70;;;;;;4954942;28;20195;-71
2023/08/04 03:02:27;;;;;;;2.00;1.00;;;13.00;41.20;;;;;;4955533;28;20402;-71
2023/08/04 03:04:53;;;;;;;2.80;0.87;;;13.10;39.90;;;;;;4954262;29;20452;-72
2023/08/04 03:07:18;;;;;;;2.10;1.10;;;13.30;39.80;;;;;;4955613;28;20440;-71
2023/08/04 03:09:44;;;;;;;3.13;1.10;;;13.40;38.80;;;;;;4955152;29;20182;-72
2023/08/04 03:12:09;;;;;;;1.73;0.80;;;13.40;38.10;;;;;;4955269;29;20546;-71
2023/08/04 03:14:35;;;;;;;3.57;1.20;;;13.40;37.10;;;;;;4955535;29;20518;-71
2023/08/04 03:17:00;;;;;;;2.10;1.10;;;13.50;36.30;;;;;;4955289;28;20679;-71
2023/08/04 03:19:29;;;;;;;1.70;0.80;;;13.40;35.70;;;;;;4955556;29;20188;-71
2023/08/04 03:21:55;;;;;;;3.00;0.90;;;13.40;36.20;;;;;;4955525;29;20250;-71
2023/08/04 03:24:20;;;;;;;1.50;0.57;;;13.40;35.80;;;;;;4954428;29;20424;-71
2023/08/04 03:26:46;;;;;;;2.00;1.00;;;13.40;36.70;;;;;;4954271;29;20189;-71
2023/08/04 03:29:12;;;;;;;3.70;1.13;;;13.30;36.40;;;;;;4955513;28;20597;-72
2023/08/04 03:31:37;;;;;;;1.87;1.00;;;13.30;36.70;;;;;;4955945;28;20228;-73
2023/08/04 03:34:03;;;;;;;1.60;0.80;;;13.30;36.20;;;;;;4956756;29;20428;-71
2023/08/04 03:36:30;;;;;;;3.10;1.00;;;13.20;36.70;;;;;;4956933;29;20213;-71
2023/08/04 03:38:56;;;;;;;5.23;1.17;;;13.20;36.90;;;;;;4955764;28;20191;-72
2023/08/04 03:41:22;;;;;;;3.03;1.00;;;13.20;37.60;;;;;;4953855;29;20429;-73
2023/08/04 03:43:47;;;;;;;1.80;1.00;;;13.10;37.70;;;;;;4954858;29;20180;-72
2023/08/04 03:46:13;;;;;;;1.70;0.77;;;13.00;38.30;;;;;;4955161;29;20172;-72
2023/08/04 03:48:38;;;;;;;2.03;0.80;;;12.90;40.10;;;;;;4954870;28;20203;-71
2023/08/04 03:51:04;;;;;;;1.50;0.70;;;12.90;40.10;;;;;;4955143;29;20191;-73
2023/08/04 03:53:29;;;;;;;2.00;0.93;;;12.90;39.90;;;;;;4954597;29;20209;-70
2023/08/04 03:55:55;;;;;;;2.17;0.80;;;12.90;40.10;;;;;;4954423;29;20221;-71
2023/08/04 03:58:20;;;;;;;1.63;0.70;;;12.90;40.00;;;;;;4954786;28;20252;-71
2023/08/04 04:00:46;;;;;;;6.17;1.67;;;12.80;40.60;;;;;;4954847;29;20672;-72
2023/08/04 04:03:11;;;;;;;3.30;1.20;;;12.80;40.20;;;;;;4954436;29;20193;-71
2023/08/04 04:05:38;;;;;;;2.23;1.23;;;12.80;40.50;;;;;;4955334;29;20184;-73
2023/08/04 04:08:04;;;;;;;1.90;0.83;;;12.80;40.40;;;;;;4955618;28;20208;-70
2023/08/04 04:10:29;;;;;;;2.00;1.10;;;12.80;40.00;;;;;;4955072;28;20428;-70
2023/08/04 04:12:55;;;;;;;1.50;0.70;;;12.90;40.60;;;;;;4955140;29;20238;-71
2023/08/04 04:15:21;;;;;;;1.70;0.87;;;12.80;40.40;;;;;;4955646;29;20186;-70
2023/08/04 04:17:47;;;;;;;2.50;1.00;;;12.90;39.80;;;;;;4955297;28;20301;-71
2023/08/04 04:20:12;;;;;;;3.40;1.20;;;13.00;40.00;;;;;;4954880;28;20208;-72
2023/08/04 04:22:38;;;;;;;2.10;1.10;;;13.00;41.10;;;;;;4953469;29;20427;-71
2023/08/04 04:25:04;;;;;;;2.60;1.07;;;13.20;40.40;;;;;;4954443;29;20644;-71
2023/08/04 04:27:30;;;;;;;3.70;1.27;;;13.30;39.90;;;;;;4954385;28;20470;-72
2023/08/04 04:29:56;;;;;;;2.20;1.03;;;13.40;38.30;;;;;;4953003;29;20856;-72
2023/08/04 04:32:21;;;;;;;4.00;1.00;;;13.40;36.80;;;;;;4954685;29;20207;-70
2023/08/04 04:34:47;;;;;;;2.40;1.10;;;13.50;37.60;;;;;;4969119;28;20185;-70
2023/08/04 04:37:13;;;;;;;2.40;1.10;;;13.60;34.70;;;;;;4953573;28;20229;-70
2023/08/04 04:39:38;;;;;;;2.60;0.60;;;13.70;34.00;;;;;;4953624;29;20182;-70
2023/08/04 04:42:05;;;;;;;1.60;0.70;;;13.80;32.20;;;;;;4953656;29;20263;-70
2023/08/04 04:44:31;;;;;;;4.47;0.90;;;13.80;32.30;;;;;;4968997;28;20619;-69
2023/08/04 04:46:59;;;;;;;2.00;1.10;;;14.00;32.50;;;;;;4954015;29;20419;-70
2023/08/04 04:49:24;;;;;;;2.13;0.70;;;14.10;32.10;;;;;;4954073;28;20254;-70
2023/08/04 04:51:50;;;;;;;2.73;0.97;;;14.20;30.80;;;;;;4953655;29;20818;-70
2023/08/04 04:54:15;;;;;;;2.43;1.10;;;14.30;31.50;;;;;;4953050;29;20187;-73
2023/08/04 04:56:41;;;;;;;2.20;1.57;;;14.40;31.00;;;;;;4953926;29;20301;-71
2023/08/04 04:59:06;;;;;;;2.40;1.10;;;14.50;29.90;;;;;;4953909;28;20205;-71
2023/08/04 05:01:32;;;;;;;1.60;0.70;;;14.50;29.90;;;;;;4953721;29;20174;-70
2023/08/04 05:03:58;;;;;;;2.30;1.33;;;14.70;29.20;;;;;;4953906;29;20244;-71
2023/08/04 05:06:24;;;;;;;2.90;1.10;;;14.80;29.00;;;;;;4954133;29;20181;-69
2023/08/04 05:08:49;;;;;;;2.07;1.10;;;14.90;27.20;;;;;;4952520;28;20551;-69
2023/08/04 05:11:15;;;;;;;1.77;0.87;;;15.00;26.00;;;;;;4954655;29;20264;-70
2023/08/04 05:13:41;;;;;;;1.80;1.00;;;15.20;25.50;;;;;;4954101;29;20182;-69
2023/08/04 05:16:07;;;;;;;2.63;0.93;;;15.30;25.20;;;;;;4953907;29;20602;-69
2023/08/04 05:18:33;;;;;;;2.07;0.97;;;15.40;24.40;;;;;;4952405;28;20493;-70
2023/08/04 05:20:58;;;;;;;2.83;1.33;;;15.60;25.20;;;;;;4953803;28;20424;-71
2023/08/04 05:23:24;;;;;;;2.93;1.33;;;15.80;24.00;;;;;;4956920;29;20213;-70
2023/08/04 05:25:50;;;;;;;2.70;1.60;;;15.90;24.40;;;;;;4957528;28;20170;-71
2023/08/04 05:28:28;;;;;;;2.67;1.07;;;16.00;23.40;;;;;;4957378;28;20220;-70
2023/08/04 05:31:00;;;;;;;3.17;1.67;;;16.20;21.90;;;;;;4957299;28;20459;-72
2023/08/04 05:33:27;;;;;;;2.83;1.83;;;16.10;22.50;;;;;;4957000;28;20472;-72
2023/08/04 05:35:53;;;;;;;6.00;1.80;;;15.90;22.40;;;;;;4956932;28;20424;-73
2023/08/04 05:38:19;;;;;;;1.93;1.37;;;16.00;23.30;;;;;;4956974;28;20496;-73
2023/08/04 05:40:46;;;;;;;2.47;1.00;;;15.90;23.50;;;;;;4957127;28;20420;-72
2023/08/04 05:43:12;;;;;;;4.97;2.63;;;15.90;23.40;;;;;;4956796;28;20425;-72
2023/08/04 05:45:41;;;;;;;2.53;1.73;;;16.10;23.30;;;;;;4956984;29;20421;-72
2023/08/04 05:48:06;;;;;;;3.93;1.80;;;16.10;22.20;;;;;;4955703;28;20454;-72
2023/08/04 05:50:32;;;;;;;5.03;1.97;;;15.90;22.80;;;;;;4957015;28;20472;-72
2023/08/04 05:52:58;;;;;;;4.10;1.77;;;16.20;22.80;;;;;;4956686;29;20174;-72
2023/08/04 05:55:24;;;;;;;2.17;1.63;;;16.40;21.70;;;;;;4956976;28;20178;-72
2023/08/04 05:57:53;;;;;;;4.33;2.10;;;16.30;21.40;;;;;;4956723;28;20491;-72
2023/08/04 06:00:19;;;;;;;2.40;1.67;;;16.40;22.20;;;;;;4956676;28;20170;-72
2023/08/04 06:02:45;;;;;;;4.23;2.10;;;16.70;20.80;;;;;;4956357;29;20469;-72
2023/08/04 06:05:12;;;;;;;2.40;1.40;;;16.90;19.20;;;;;;4956665;29;20193;-72
2023/08/04 06:07:37;;;;;;;2.40;1.40;;;17.10;18.90;;;;;;4956700;28;20441;-72
2023/08/04 06:10:03;;;;;;;4.03;1.77;;;17.30;18.30;;;;;;4956587;28;20491;-71
2023/08/04 06:12:29;;;;;;;3.10;1.70;;;17.40;17.90;;;;;;4955444;29;20345;-71
2023/08/04 06:14:55;;;;;;;2.07;1.40;;;17.60;16.10;;;;;;4956657;28;20441;-71
2023/08/04 06:17:21;;;;;;;2.70;2.00;;;18.10;15.20;;;;;;4956344;28;20536;-72
2023/08/04 06:19:46;;;;;;;2.97;1.60;;;18.60;14.40;;;;;;4956341;29;20429;-72
2023/08/04 06:22:13;;;;;;;3.20;1.80;;;19.30;11.60;;;;;;4956393;29;20576;-70
2023/08/04 06:24:39;;;;;;;2.40;1.43;;;20.10;9.00;;;;;;4956435;29;20545;-70
2023/08/04 06:27:04;;;;;;;3.80;1.60;;;20.50;7.60;;;;;;4956285;28;20413;-71
2023/08/04 06:29:30;;;;;;;3.03;1.43;;;20.70;6.80;;;;;;4956124;29;20253;-71
2023/08/04 06:31:56;;;;;;;2.23;1.53;;;20.70;6.40;;;;;;4956305;29;20182;-71
2023/08/04 06:34:21;;;;;;;2.87;1.80;;;20.80;6.00;;;;;;4955790;28;20253;-71
2023/08/04 06:36:47;;;;;;;2.20;1.50;;;20.80;5.40;;;;;;4956487;29;20757;-71
2023/08/04 06:39:13;;;;;;;3.00;1.87;;;20.70;5.80;;;;;;4956136;28;20202;-71
2023/08/04 06:41:40;;;;;;;2.53;1.67;;;20.70;5.20;;;;;;4955856;29;20986;-71
2023/08/04 06:44:05;;;;;;;3.20;1.60;;;20.70;6.00;;;;;;4955972;28;20628;-71
2023/08/04 06:46:31;;;;;;;3.53;1.70;;;20.60;5.80;;;;;;4956171;29;20449;-72
2023/08/04 06:49:00;;;;;;;3.30;2.00;;;19.80;7.20;;;;;;4956047;28;20225;-72
2023/08/04 06:51:25;;;;;;;4.00;1.70;;;19.60;8.20;;;;;;4955863;28;20240;-70
2023/08/04 06:53:51;;;;;;;1.90;1.37;;;19.50;9.20;;;;;;4955790;29;20504;-75
2023/08/04 06:56:18;;;;;;;5.53;2.10;;;20.00;8.50;;;;;;4954532;29;20202;-72
2023/08/04 06:58:43;;;;;;;2.67;1.77;;;20.20;7.70;;;;;;4954579;28;20214;-71
2023/08/04 07:01:09;;;;;;;2.77;1.83;;;20.10;8.30;;;;;;4952803;29;21201;-71
2023/08/04 07:03:35;;;;;;;2.60;2.00;;;20.80;6.40;;;;;;4942012;28;20190;-71
2023/08/04 07:06:00;;;;;;;3.10;1.90;;;21.70;5.40;;;;;;4952014;29;20574;-73
2023/08/04 07:08:29;;;;;;;2.83;1.77;;;21.80;4.20;;;;;;4951201;28;20190;-71
2023/08/04 07:10:54;;;;;;;2.70;2.07;;;22.00;4.30;;;;;;4950423;28;20195;-73
2023/08/04 07:13:20;;;;;;;4.07;2.57;;;22.20;3.60;;;;;;4950995;28;20429;-71
2023/08/04 07:15:59;;;;;;;5.43;2.50;;;22.60;2.80;;;;;;4950692;29;20176;-71
2023/08/04 07:18:28;;;;;;;4.10;3.17;;;22.90;1.40;;;;;;4935679;28;20279;-73
2023/08/04 07:21:02;;;;;;;4.87;2.80;;;23.20;1.00;;;;;;4941926;29;20438;-72
2023/08/04 07:23:31;;;;;;;3.07;2.00;;;23.30;1.00;;;;;;4951502;28;20917;-72
2023/08/04 07:25:59;;;;;;;6.20;2.50;;;23.00;1.00;;;;;;4952113;29;20528;-72
2023/08/04 07:28:28;;;;;;;4.03;2.10;;;23.00;1.00;;;;;;4949508;28;20443;-71
2023/08/04 07:30:54;;;;;;;3.10;2.37;;;23.30;1.00;;;;;;4931934;29;20442;-72
2023/08/04 07:33:20;;;;;;;3.10;2.20;;;23.80;1.00;;;;;;4932256;29;20925;-70
2023/08/04 07:35:55;;;;;;;4.30;2.70;;;24.90;1.00;;;;;;4943306;29;20253;-71
2023/08/04 07:38:21;;;;;;;3.43;2.63;;;26.60;1.00;;;;;;4950888;28;20280;-71
2023/08/04 07:40:47;;;;;;;2.77;2.57;;;28.00;1.00;;;;;;4950167;28;20425;-72
2023/08/04 07:43:13;;;;;;;2.97;2.60;;;28.30;1.00;;;;;;4939122;28;20452;-71
2023/08/04 07:45:39;;;;;;;3.23;2.93;;;28.60;1.00;;;;;;4964635;28;20190;-71
2023/08/04 07:48:05;;;;;;;3.40;3.10;;;29.20;1.00;;;;;;4966006;28;20481;-71
2023/08/04 07:50:41;;;;;;;3.53;2.90;;;30.30;1.00;;;;;;4950997;28;21014;-72
2023/08/04 07:53:07;;;;;;;3.70;3.40;;;30.10;1.00;;;;;;4950238;29;20178;-71
2023/08/04 07:55:39;;;;;;;2.97;2.77;;;30.10;1.00;;;;;;4947578;29;20438;-69
2023/08/04 07:58:08;;;;;;;4.63;3.30;;;30.10;1.00;;;;;;4930287;29;20249;-70
2023/08/04 08:00:34;;;;;;;3.27;2.97;;;31.40;1.00;;;;;;4938454;29;20520;-70
2023/08/04 08:03:00;;;;;;;4.23;3.83;;;32.50;1.00;;;;;;4947670;29;20493;-70
2023/08/04 08:05:26;;;;;;;3.80;3.60;;;33.00;1.00;;;;;;4938455;29;20433;-70
2023/08/04 08:07:51;;;;;;;3.70;3.40;;;32.90;1.00;;;;;;4951676;28;20233;-71
2023/08/04 08:10:18;;;;;;;6.07;3.50;;;33.10;1.00;;;;;;4950929;28;20429;-70
2023/08/04 08:12:43;;;;;;;3.53;3.30;;;32.40;1.00;;;;;;4951700;28;20194;-70
2023/08/04 08:15:09;;;;;;;4.30;3.70;;;32.00;1.00;;;;;;4934908;29;20993;-70
2023/08/04 08:17:35;;;;;;;4.10;3.70;;;33.00;1.00;;;;;;4950262;28;20214;-71
2023/08/04 08:20:01;;;;;;;3.50;3.30;;;34.10;1.00;;;;;;4950903;28;20449;-70
2023/08/04 08:22:27;;;;;;;3.90;3.60;;;34.30;1.00;;;;;;4949658;28;20182;-69
2023/08/04 08:24:56;;;;;;;3.77;3.47;;;35.30;1.00;;;;;;4949978;28;20181;-69
2023/08/04 08:27:21;;;;;;;3.73;3.53;;;36.10;1.00;;;;;;4952755;28;20202;-72
2023/08/04 08:29:53;;;;;;;5.43;4.17;;;35.50;1.00;;;;;;4954412;28;20424;-72
2023/08/04 08:32:18;;;;;;;4.20;3.90;;;33.80;1.00;;;;;;4954056;28;20186;-72
2023/08/04 08:34:44;;;;;;;3.70;3.40;;;35.90;1.00;;;;;;4954298;29;20436;-72
2023/08/04 08:37:10;;;;;;;3.97;3.77;;;36.20;1.00;;;;;;4954013;28;20205;-72
2023/08/04 08:39:36;;;;;;;4.57;4.27;;;36.40;1.00;;;;;;4954278;29;20212;-73
2023/08/04 08:42:07;;;;;;;3.60;3.40;;;35.50;1.00;;;;;;4954145;28;20877;-73
2023/08/04 08:44:33;;;;;;;3.63;3.43;;;36.20;1.00;;;;;;4954224;29;20336;-70
2023/08/04 08:46:59;;;;;;;4.10;3.80;;;35.20;1.00;;;;;;4954202;28;20417;-70
2023/08/04 08:49:30;;;;;;;3.70;3.50;;;35.00;1.00;;;;;;4954847;29;20173;-72
2023/08/04 08:51:56;;;;;;;3.73;3.27;;;34.10;1.00;;;;;;4954348;28;20182;-72
2023/08/04 08:54:22;;;;;;;3.43;3.23;;;35.70;1.00;;;;;;4954774;28;20521;-72
2023/08/04 08:56:50;;;;;;;3.50;3.30;;;35.00;1.00;;;;;;4957529;28;20449;-72
2023/08/04 08:59:19;;;;;;;3.57;3.27;;;32.80;1.00;;;;;;4958496;28;20430;-73
2023/08/04 09:01:45;;;;;;;3.63;3.43;;;32.00;1.00;;;;;;4957873;28;20958;-72
2023/08/04 09:04:10;;;;;;;4.20;3.57;;;31.40;1.00;;;;;;4957952;29;20414;-73
2023/08/04 09:06:36;;;;;;;6.50;3.00;;;30.60;1.00;;;;;;4956788;29;20192;-73
2023/08/04 09:09:02;;;;;;;3.13;2.93;;;30.40;1.00;;;;;;4958009;28;20208;-72
2023/08/04 09:11:31;;;;;;;3.53;3.20;;;30.10;1.00;;;;;;4958222;29;20197;-73
2023/08/04 09:14:00;;;;;;;2.80;2.60;;;28.40;1.00;;;;;;4957334;29;20456;-72
2023/08/04 09:16:36;;;;;;;2.60;2.40;;;27.60;1.00;;;;;;4957926;28;20460;-71
2023/08/04 09:19:04;;;;;;;3.00;2.80;;;26.70;1.00;;;;;;4956628;28;20547;-71
2023/08/04 09:21:30;;;;;;;2.80;2.60;;;25.80;1.00;;;;;;4956368;29;20445;-71
2023/08/04 09:23:56;;;;;;;2.83;2.63;;;24.80;1.00;;;;;;4957795;28;20441;-71
2023/08/04 09:26:22;;;;;;;2.63;2.30;;;24.70;1.00;;;;;;4957772;29;20433;-71
2023/08/04 09:29:05;;;;;;;2.83;2.63;;;24.30;1.00;;;;;;4957903;28;20202;-71
2023/08/04 09:31:41;;;;;;;2.93;2.37;;;23.90;1.00;;;;;;4957408;28;20421;-71
2023/08/04 09:34:11;;;;;;;2.80;2.50;;;23.40;1.00;;;;;;4957453;28;20413;-72
2023/08/04 09:36:48;;;;;;;2.50;2.30;;;23.50;1.00;;;;;;4957311;29;20468;-73
2023/08/04 09:39:15;;;;;;;4.43;2.73;;;23.70;1.00;;;;;;4956966;28;20862;-71
2023/08/04 09:41:45;;;;;;;2.57;2.20;;;23.60;1.00;;;;;;4955430;29;20426;-71
2023/08/04 09:44:11;;;;;;;2.90;2.40;;;23.50;1.00;;;;;;4956795;28;20446;-72
2023/08/04 09:46:50;;;;;;;2.73;2.53;;;24.00;1.00;;;;;;4957109;28;20433;-72
2023/08/04 09:49:17;;;;;;;2.50;2.30;;;24.00;1.00;;;;;;4957153;28;20452;-73
2023/08/04 09:51:43;;;;;;;2.47;2.27;;;23.60;1.00;;;;;;4955678;29;20433;-71
2023/08/04 09:54:09;;;;;;;2.37;2.17;;;23.60;1.00;;;;;;4956668;29;20413;-72
2023/08/04 09:56:35;;;;;;;2.83;2.63;;;23.70;1.00;;;;;;4956636;28;20473;-72
2023/08/04 09:59:03;;;;;;;2.70;2.50;;;24.30;1.00;;;;;;4955101;28;20448;-71
2023/08/04 10:01:30;;;;;;;3.63;2.43;;;24.60;1.00;;;;;;4956285;28;20178;-71
2023/08/04 10:03:57;;;;;;;3.27;2.97;;;24.80;1.00;;;;;;4955352;29;20425;-72
2023/08/04 10:06:26;;;;;;;2.70;2.50;;;24.70;1.00;;;;;;4956915;29;20441;-72
2023/08/04 10:08:54;;;;;;;4.37;2.80;;;24.00;1.00;;;;;;4956037;28;20460;-71
2023/08/04 10:11:22;;;;;;;3.03;2.83;;;23.60;1.00;;;;;;4956457;28;20447;-72
2023/08/04 10:13:51;;;;;;;2.77;2.57;;;23.70;1.00;;;;;;4956122;28;20434;-72
2023/08/04 10:16:20;;;;;;;2.47;2.27;;;23.70;1.00;;;;;;4955105;29;20436;-71
2023/08/04 10:18:46;;;;;;;3.40;3.20;;;23.60;1.00;;;;;;4956216;28;20834;-71
2023/08/04 10:21:12;;;;;;;2.53;2.30;;;23.90;1.00;;;;;;4956352;28;20426;-73
2023/08/04 10:23:38;;;;;;;3.40;2.60;;;24.30;1.00;;;;;;4956169;29;20432;-71
2023/08/04 10:26:06;;;;;;;2.70;2.50;;;24.60;1.00;;;;;;4956319;29;20182;-71
2023/08/04 10:28:32;;;;;;;2.80;2.60;;;24.80;1.00;;;;;;4956025;28;20229;-71
2023/08/04 10:31:11;;;;;;;3.33;3.03;;;25.00;1.00;;;;;;4956306;28;20426;-71
2023/08/04 10:33:36;;;;;;;2.80;2.60;;;24.90;1.00;;;;;;4956007;28;20429;-72
2023/08/04 10:36:08;;;;;;;3.37;2.50;;;25.30;1.00;;;;;;4956138;29;20950;-72
2023/08/04 10:38:49;;;;;;;2.80;2.57;;;25.20;1.00;;;;;;4956658;28;20241;-72
2023/08/04 10:41:15;;;;;;;2.77;2.57;;;25.10;1.00;;;;;;4956109;28;20417;-71
2023/08/04 10:43:57;;;;;;;4.03;3.20;;;24.80;1.00;;;;;;4955701;28;20476;-72
2023/08/04 10:46:24;;;;;;;3.20;2.40;;;24.40;1.00;;;;;;4954683;29;20500;-72
2023/08/04 10:48:49;;;;;;;2.80;2.57;;;24.40;1.00;;;;;;4954407;28;20646;-72
2023/08/04 10:51:15;;;;;;;4.03;2.77;;;24.10;1.00;;;;;;4954338;29;20520;-69
2023/08/04 10:53:41;;;;;;;2.40;2.20;;;23.70;1.00;;;;;;4955168;29;20176;-71
2023/08/04 10:56:07;;;;;;;3.37;3.00;;;23.60;1.00;;;;;;4955457;29;20264;-69
2023/08/04 10:58:33;;;;;;;5.10;2.40;;;24.00;1.00;;;;;;4955393;28;20229;-69
2023/08/04 11:00:58;;;;;;;3.83;1.83;;;24.00;1.00;;;;;;4955771;29;20414;-67
2023/08/04 11:03:29;;;;;;;2.10;2.00;;;23.70;1.00;;;;;;4955082;29;20174;-68
2023/08/04 11:05:56;;;;;;;3.03;2.50;;;23.90;1.00;;;;;;4955428;28;20178;-67
2023/08/04 11:08:23;;;;;;;3.20;2.10;;;24.20;1.00;;;;;;4954756;28;20520;-68
2023/08/04 11:10:50;;;;;;;2.87;1.90;;;24.60;1.00;;;;;;4954966;28;20449;-67
2023/08/04 11:13:19;;;;;;;3.53;2.77;;;24.70;1.00;;;;;;4954893;29;20424;-68
2023/08/04 11:15:46;;;;;;;2.47;2.27;;;25.50;1.00;;;;;;4955175;28;20445;-67
2023/08/04 11:18:14;;;;;;;3.07;2.63;;;25.40;1.00;;;;;;4954727;28;20665;-67
2023/08/04 11:20:40;;;;;;;2.40;2.20;;;25.10;1.00;;;;;;4953952;28;20425;-68
2023/08/04 11:23:11;;;;;;;2.77;2.57;;;24.80;1.00;;;;;;4954745;28;20405;-68
2023/08/04 11:25:41;;;;;;;2.47;2.27;;;24.90;1.00;;;;;;4955066;28;20406;-68
2023/08/04 11:28:07;;;;;;;2.67;2.47;;;25.00;1.00;;;;;;4954740;28;20448;-68
2023/08/04 11:30:34;;;;;;;2.70;2.50;;;25.10;1.00;;;;;;4955168;29;20517;-68
2023/08/04 11:33:00;;;;;;;2.70;2.50;;;24.70;1.00;;;;;;4954842;29;20473;-67
2023/08/04 11:35:32;;;;;;;2.23;2.07;;;24.60;1.00;;;;;;4954818;28;20920;-67
2023/08/04 11:37:59;;;;;;;4.00;2.50;;;24.80;1.00;;;;;;4954604;28;20468;-67
2023/08/04 11:40:26;;;;;;;2.00;1.90;;;25.10;1.00;;;;;;4954608;28;20785;-68
2023/08/04 11:42:51;;;;;;;2.90;2.70;;;25.40;1.00;;;;;;4954349;28;20420;-67
2023/08/04 11:45:17;;;;;;;2.10;2.00;;;25.40;1.00;;;;;;4954283;29;20488;-68
2023/08/04 11:47:43;;;;;;;2.20;2.00;;;24.80;1.00;;;;;;4954395;28;20297;-69
2023/08/04 11:50:09;;;;;;;3.50;2.63;;;24.20;1.00;;;;;;4954674;28;20853;-69
2023/08/04 11:52:38;;;;;;;3.20;2.47;;;23.60;1.00;;;;;;4949209;28;20224;-67
2023/08/04 11:55:04;;;;;;;4.00;2.20;;;23.70;1.00;;;;;;4950746;28;20510;-68
2023/08/04 11:57:30;;;;;;;3.20;2.20;;;23.70;1.00;;;;;;4949737;28;20849;-69
2023/08/04 11:59:57;;;;;;;1.97;1.67;;;23.70;1.00;;;;;;4949905;28;20426;-70
2023/08/04 12:02:23;;;;;;;2.30;1.83;;;23.40;1.00;;;;;;4949038;28;20182;-69
2023/08/04 12:05:13;;;;;;;2.20;2.00;;;23.10;1.00;;;;;;4952555;28;20433;-70
2023/08/04 12:07:39;;;;;;;2.00;1.90;;;23.30;1.00;;;;;;4953030;29;20959;-70
2023/08/04 12:10:05;;;;;;;2.00;1.90;;;23.40;1.00;;;;;;4954315;28;20476;-68
2023/08/04 12:12:38;;;;;;;2.13;2.03;;;23.50;1.00;;;;;;4954310;28;20213;-68
2023/08/04 12:15:04;;;;;;;1.93;1.83;;;23.70;1.00;;;;;;4954422;28;20774;-68
2023/08/04 12:17:43;;;;;;;2.10;2.00;;;23.80;1.00;;;;;;4954466;28;20990;-68
2023/08/04 12:20:13;;;;;;;2.90;2.40;;;24.30;1.00;;;;;;4954371;28;20421;-68
2023/08/04 12:22:41;;;;;;;2.70;2.50;;;24.40;1.00;;;;;;4948485;28;20421;-67
2023/08/04 12:25:07;;;;;;;2.33;2.13;;;24.70;1.00;;;;;;4949671;28;20424;-69
2023/08/04 12:27:34;;;;;;;2.30;2.10;;;24.70;1.00;;;;;;4949721;28;20978;-70
2023/08/04 12:29:59;;;;;;;2.30;2.20;;;24.70;1.00;;;;;;4949811;28;20420;-67
2023/08/04 12:32:25;;;;;;;2.53;2.33;;;24.80;1.00;;;;;;4949568;29;20423;-68
2023/08/04 12:34:51;;;;;;;2.30;2.10;;;24.30;1.00;;;;;;4944956;28;20202;-68
2023/08/04 12:37:16;;;;;;;2.33;2.00;;;24.60;1.00;;;;;;4930969;28;20301;-68
2023/08/04 12:39:44;;;;;;;2.43;2.10;;;24.70;1.00;;;;;;4937478;29;20269;-69
2023/08/04 12:42:10;;;;;;;2.40;2.20;;;24.50;1.00;;;;;;4949588;28;20186;-68
2023/08/04 12:44:35;;;;;;;2.30;2.10;;;24.40;1.00;;;;;;4955371;28;20998;-68
2023/08/04 12:47:01;;;;;;;2.30;2.10;;;23.90;1.00;;;;;;4951427;28;20201;-70
2023/08/04 12:49:28;;;;;;;2.10;2.00;;;24.20;1.00;;;;;;4953988;28;20185;-71
2023/08/04 12:51:53;;;;;;;2.30;2.10;;;24.10;1.00;;;;;;4953549;29;20421;-71